DLH6TR EDDF-EHAM
Flight info
| Callsign | DLH6TR |
|---|---|
| Flight time | 1h 0m |
| Altitude | 24000 |
| Route | MARUN8M/25C MARUN Y152 ARPEG Z850 ABILU DCT NORKU |
| Aircraft | A320/M-SDE3FGHIRWY/LB1 |
Departure
| Time | 2026-05-07 13:18 |
|---|---|
| Airport | Frankfurt Main Airport (EDDF) |
Arrival
| Time | 2026-05-07 14:18 |
|---|---|
| Airport | Amsterdam Airport Schiphol (EHAM) |
| Time | Latitude | Longitude | Altitude | Speed | Heading |
|---|---|---|---|---|---|
| 2026-05-07 12:58 | 50.04090 | 8.55757 | 352 ft | 0 kts | 160° |
| 2026-05-07 13:14 | 50.04064 | 8.55772 | 354 ft | 9 kts | 160° |
| 2026-05-07 13:14 | 50.04022 | 8.55830 | 351 ft | 10 kts | 92° |
| 2026-05-07 13:14 | 50.04052 | 8.55968 | 351 ft | 14 kts | 70° |
| 2026-05-07 13:15 | 50.04095 | 8.56146 | 354 ft | 18 kts | 69° |
| 2026-05-07 13:15 | 50.04137 | 8.56319 | 353 ft | 16 kts | 70° |
| 2026-05-07 13:15 | 50.04175 | 8.56482 | 359 ft | 20 kts | 70° |
| 2026-05-07 13:15 | 50.04214 | 8.56645 | 360 ft | 27 kts | 69° |
| 2026-05-07 13:16 | 50.04300 | 8.57008 | 364 ft | 27 kts | 69° |
| 2026-05-07 13:16 | 50.04344 | 8.57192 | 363 ft | 28 kts | 70° |
| 2026-05-07 13:16 | 50.04419 | 8.57503 | 364 ft | 13 kts | 69° |
| 2026-05-07 13:16 | 50.04419 | 8.57615 | 365 ft | 8 kts | 123° |
| 2026-05-07 13:17 | 50.04336 | 8.57684 | 362 ft | 19 kts | 159° |
| 2026-05-07 13:17 | 50.04248 | 8.57586 | 364 ft | 18 kts | 249° |
| 2026-05-07 13:17 | 50.04172 | 8.57264 | 367 ft | 65 kts | 250° |
| 2026-05-07 13:17 | 50.03912 | 8.56176 | 355 ft | 146 kts | 250° |
| 2026-05-07 13:18 | 50.03537 | 8.54602 | 945 ft | 161 kts | 249° |
| 2026-05-07 13:18 | 50.03134 | 8.52926 | 1824 ft | 168 kts | 251° |
| 2026-05-07 13:18 | 50.02708 | 8.51159 | 2331 ft | 185 kts | 249° |
| 2026-05-07 13:18 | 50.01822 | 8.49596 | 2747 ft | 208 kts | 205° |
| 2026-05-07 13:19 | 50.00419 | 8.48936 | 3490 ft | 212 kts | 197° |
| 2026-05-07 13:19 | 49.99006 | 8.48339 | 4290 ft | 214 kts | 197° |
| 2026-05-07 13:19 | 49.97566 | 8.47717 | 5084 ft | 216 kts | 198° |
| 2026-05-07 13:19 | 49.96094 | 8.47074 | 5877 ft | 218 kts | 198° |
| 2026-05-07 13:20 | 49.94574 | 8.46391 | 6395 ft | 239 kts | 198° |
| 2026-05-07 13:20 | 49.92943 | 8.45640 | 6989 ft | 253 kts | 198° |
| 2026-05-07 13:20 | 49.91340 | 8.44515 | 7759 ft | 255 kts | 221° |
| 2026-05-07 13:20 | 49.90315 | 8.42315 | 8594 ft | 254 kts | 253° |
| 2026-05-07 13:21 | 49.90191 | 8.39619 | 9438 ft | 254 kts | 284° |
| 2026-05-07 13:21 | 49.91015 | 8.37183 | 10246 ft | 257 kts | 315° |
| 2026-05-07 13:21 | 49.92513 | 8.35702 | 10866 ft | 269 kts | 335° |
| 2026-05-07 13:21 | 49.94331 | 8.34484 | 11159 ft | 293 kts | 336° |
| 2026-05-07 13:22 | 49.96270 | 8.33226 | 11408 ft | 316 kts | 336° |
| 2026-05-07 13:22 | 49.98376 | 8.31869 | 11630 ft | 338 kts | 336° |
| 2026-05-07 13:22 | 50.00584 | 8.30443 | 12178 ft | 348 kts | 337° |
| 2026-05-07 13:22 | 50.02912 | 8.29318 | 12811 ft | 355 kts | 347° |
| 2026-05-07 13:23 | 50.05378 | 8.28975 | 13365 ft | 359 kts | 0° |
| 2026-05-07 13:23 | 50.07867 | 8.29464 | 14092 ft | 364 kts | 12° |
| 2026-05-07 13:23 | 50.10304 | 8.30645 | 14753 ft | 368 kts | 17° |
| 2026-05-07 13:23 | 50.12747 | 8.31924 | 15401 ft | 372 kts | 17° |
| 2026-05-07 13:24 | 50.15210 | 8.33216 | 16036 ft | 375 kts | 17° |
| 2026-05-07 13:24 | 50.17697 | 8.34523 | 16662 ft | 379 kts | 17° |
| 2026-05-07 13:24 | 50.20206 | 8.35840 | 17286 ft | 383 kts | 18° |
| 2026-05-07 13:24 | 50.22745 | 8.37171 | 17925 ft | 386 kts | 18° |
| 2026-05-07 13:25 | 50.25305 | 8.38514 | 18502 ft | 391 kts | 17° |
| 2026-05-07 13:25 | 50.27894 | 8.39874 | 19051 ft | 394 kts | 17° |
| 2026-05-07 13:25 | 50.30503 | 8.41247 | 19604 ft | 397 kts | 18° |
| 2026-05-07 13:25 | 50.33128 | 8.42655 | 20141 ft | 400 kts | 17° |
| 2026-05-07 13:26 | 50.35773 | 8.44099 | 20702 ft | 403 kts | 19° |
| 2026-05-07 13:26 | 50.38427 | 8.45564 | 21216 ft | 406 kts | 18° |
| 2026-05-07 13:26 | 50.41102 | 8.47040 | 21729 ft | 409 kts | 18° |
| 2026-05-07 13:26 | 50.43800 | 8.48530 | 22209 ft | 412 kts | 18° |
| 2026-05-07 13:27 | 50.46526 | 8.50030 | 22685 ft | 416 kts | 18° |
| 2026-05-07 13:27 | 50.49239 | 8.51477 | 23163 ft | 419 kts | 17° |
| 2026-05-07 13:27 | 50.52031 | 8.52858 | 23616 ft | 421 kts | 15° |
| 2026-05-07 13:27 | 50.54846 | 8.54176 | 23942 ft | 424 kts | 15° |
| 2026-05-07 13:28 | 50.57685 | 8.55483 | 24039 ft | 428 kts | 15° |
| 2026-05-07 13:28 | 50.60583 | 8.56824 | 24047 ft | 438 kts | 15° |
| 2026-05-07 13:28 | 50.63513 | 8.58198 | 24046 ft | 440 kts | 16° |
| 2026-05-07 13:28 | 50.66444 | 8.59600 | 24046 ft | 441 kts | 16° |
| 2026-05-07 13:29 | 50.69376 | 8.61014 | 24045 ft | 441 kts | 17° |
| 2026-05-07 13:29 | 50.72307 | 8.62436 | 24046 ft | 441 kts | 17° |
| 2026-05-07 13:29 | 50.75279 | 8.63635 | 24040 ft | 440 kts | 7° |
| 2026-05-07 13:29 | 50.78323 | 8.63795 | 24047 ft | 438 kts | 354° |
| 2026-05-07 13:30 | 50.81316 | 8.62900 | 24044 ft | 437 kts | 342° |
| 2026-05-07 13:30 | 50.84107 | 8.61061 | 24043 ft | 434 kts | 330° |
| 2026-05-07 13:30 | 50.86597 | 8.58376 | 24038 ft | 433 kts | 319° |
| 2026-05-07 13:30 | 50.88695 | 8.54971 | 24038 ft | 432 kts | 310° |
| 2026-05-07 13:31 | 50.90648 | 8.51349 | 24036 ft | 432 kts | 309° |
| 2026-05-07 13:31 | 50.92592 | 8.47713 | 24037 ft | 432 kts | 309° |
| 2026-05-07 13:31 | 50.94529 | 8.44077 | 24042 ft | 432 kts | 309° |
| 2026-05-07 13:31 | 50.96466 | 8.40431 | 24039 ft | 432 kts | 309° |
| 2026-05-07 13:32 | 50.98402 | 8.36784 | 24031 ft | 433 kts | 310° |
| 2026-05-07 13:32 | 51.00384 | 8.33187 | 24027 ft | 433 kts | 314° |
| 2026-05-07 13:32 | 51.02656 | 8.30049 | 24033 ft | 434 kts | 323° |
| 2026-05-07 13:32 | 51.05207 | 8.27490 | 24033 ft | 434 kts | 330° |
| 2026-05-07 13:33 | 51.07845 | 8.25150 | 24035 ft | 434 kts | 330° |
| 2026-05-07 13:33 | 51.10486 | 8.22800 | 24033 ft | 434 kts | 330° |
| 2026-05-07 13:33 | 51.13121 | 8.20451 | 24039 ft | 434 kts | 330° |
| 2026-05-07 13:33 | 51.15754 | 8.18097 | 24039 ft | 434 kts | 330° |
| 2026-05-07 13:34 | 51.18393 | 8.15739 | 24037 ft | 435 kts | 330° |
| 2026-05-07 13:34 | 51.23635 | 8.11055 | 24037 ft | 435 kts | 329° |
| 2026-05-07 13:34 | 51.26272 | 8.08691 | 24045 ft | 435 kts | 329° |
| 2026-05-07 13:35 | 51.28913 | 8.06319 | 24043 ft | 435 kts | 329° |
| 2026-05-07 13:35 | 51.31549 | 8.03950 | 24045 ft | 435 kts | 330° |
| 2026-05-07 13:35 | 51.34191 | 8.01573 | 24045 ft | 436 kts | 329° |
| 2026-05-07 13:35 | 51.36834 | 7.99188 | 24050 ft | 436 kts | 329° |
| 2026-05-07 13:36 | 51.39478 | 7.96797 | 24053 ft | 437 kts | 329° |
| 2026-05-07 13:36 | 51.42043 | 7.94197 | 24055 ft | 435 kts | 322° |
| 2026-05-07 13:36 | 51.44476 | 7.91309 | 24058 ft | 435 kts | 322° |
| 2026-05-07 13:36 | 51.46907 | 7.88415 | 24057 ft | 435 kts | 322° |
| 2026-05-07 13:37 | 51.49338 | 7.85513 | 24060 ft | 436 kts | 322° |
| 2026-05-07 13:37 | 51.51768 | 7.82613 | 24061 ft | 436 kts | 322° |
| 2026-05-07 13:37 | 51.54204 | 7.79700 | 24066 ft | 436 kts | 322° |
| 2026-05-07 13:37 | 51.56636 | 7.76792 | 24068 ft | 436 kts | 322° |
| 2026-05-07 13:38 | 51.59073 | 7.73875 | 24069 ft | 437 kts | 322° |
| 2026-05-07 13:38 | 51.61515 | 7.70949 | 24066 ft | 438 kts | 322° |
| 2026-05-07 13:38 | 51.63954 | 7.68017 | 24060 ft | 438 kts | 322° |
| 2026-05-07 13:38 | 51.66400 | 7.65075 | 24068 ft | 438 kts | 322° |
| 2026-05-07 13:39 | 51.68843 | 7.62137 | 24066 ft | 439 kts | 322° |
| 2026-05-07 13:39 | 51.71296 | 7.59184 | 24063 ft | 439 kts | 322° |
| 2026-05-07 13:39 | 51.73749 | 7.56227 | 24058 ft | 439 kts | 322° |
| 2026-05-07 13:39 | 51.76192 | 7.53274 | 24063 ft | 439 kts | 321° |
| 2026-05-07 13:40 | 51.78628 | 7.50320 | 24057 ft | 439 kts | 322° |
| 2026-05-07 13:40 | 51.81036 | 7.47394 | 24061 ft | 439 kts | 321° |
| 2026-05-07 13:40 | 51.83477 | 7.44428 | 24066 ft | 439 kts | 321° |
| 2026-05-07 13:40 | 51.85922 | 7.41455 | 24065 ft | 439 kts | 322° |
| 2026-05-07 13:41 | 51.88364 | 7.38484 | 24048 ft | 439 kts | 321° |
| 2026-05-07 13:41 | 51.90801 | 7.35513 | 24049 ft | 439 kts | 322° |
| 2026-05-07 13:41 | 51.93240 | 7.32539 | 24049 ft | 439 kts | 322° |
| 2026-05-07 13:41 | 51.95676 | 7.29564 | 24053 ft | 438 kts | 322° |
| 2026-05-07 13:42 | 51.98108 | 7.26587 | 24053 ft | 438 kts | 322° |
| 2026-05-07 13:42 | 52.00535 | 7.23607 | 24043 ft | 438 kts | 321° |
| 2026-05-07 13:42 | 52.02964 | 7.20621 | 24042 ft | 438 kts | 321° |
| 2026-05-07 13:42 | 52.05397 | 7.17625 | 24037 ft | 437 kts | 321° |
| 2026-05-07 13:43 | 52.07824 | 7.14634 | 24046 ft | 437 kts | 321° |
| 2026-05-07 13:43 | 52.10246 | 7.11649 | 24040 ft | 438 kts | 322° |
| 2026-05-07 13:43 | 52.12674 | 7.08655 | 24038 ft | 438 kts | 321° |
| 2026-05-07 13:43 | 52.15098 | 7.05654 | 24033 ft | 438 kts | 321° |
| 2026-05-07 13:44 | 52.17525 | 7.02643 | 24029 ft | 438 kts | 321° |
| 2026-05-07 13:44 | 52.19952 | 6.99620 | 24035 ft | 438 kts | 320° |
| 2026-05-07 13:44 | 52.22197 | 6.96277 | 23973 ft | 437 kts | 312° |
| 2026-05-07 13:44 | 52.24130 | 6.92565 | 23737 ft | 434 kts | 308° |
| 2026-05-07 13:45 | 52.26034 | 6.88757 | 23483 ft | 432 kts | 308° |
| 2026-05-07 13:45 | 52.27929 | 6.84953 | 23206 ft | 430 kts | 308° |
| 2026-05-07 13:45 | 52.29811 | 6.81168 | 22928 ft | 428 kts | 308° |
| 2026-05-07 13:45 | 52.31686 | 6.77400 | 22656 ft | 427 kts | 308° |
| 2026-05-07 13:46 | 52.33579 | 6.73590 | 22382 ft | 425 kts | 308° |
| 2026-05-07 13:46 | 52.35415 | 6.69898 | 22116 ft | 423 kts | 308° |
| 2026-05-07 13:46 | 52.37266 | 6.66173 | 21849 ft | 422 kts | 308° |
| 2026-05-07 13:46 | 52.39109 | 6.62457 | 21539 ft | 418 kts | 308° |
| 2026-05-07 13:47 | 52.40925 | 6.58782 | 20900 ft | 413 kts | 308° |
| 2026-05-07 13:47 | 52.42723 | 6.55135 | 20308 ft | 409 kts | 308° |
| 2026-05-07 13:47 | 52.44473 | 6.51485 | 19719 ft | 404 kts | 304° |
| 2026-05-07 13:47 | 52.45866 | 6.47518 | 19159 ft | 400 kts | 294° |
| 2026-05-07 13:48 | 52.46802 | 6.43249 | 18622 ft | 396 kts | 284° |
| 2026-05-07 13:48 | 52.47271 | 6.38824 | 18065 ft | 392 kts | 275° |
| 2026-05-07 13:48 | 52.47492 | 6.34394 | 17548 ft | 387 kts | 274° |
| 2026-05-07 13:48 | 52.47709 | 6.30020 | 17045 ft | 382 kts | 274° |
| 2026-05-07 13:49 | 52.47923 | 6.25696 | 16539 ft | 378 kts | 274° |
| 2026-05-07 13:49 | 52.48132 | 6.21422 | 16047 ft | 374 kts | 274° |
| 2026-05-07 13:49 | 52.48337 | 6.17191 | 15529 ft | 370 kts | 274° |
| 2026-05-07 13:49 | 52.48538 | 6.13001 | 15026 ft | 367 kts | 274° |
| 2026-05-07 13:50 | 52.48738 | 6.08837 | 14489 ft | 365 kts | 274° |
| 2026-05-07 13:50 | 52.48936 | 6.04697 | 13958 ft | 363 kts | 274° |
| 2026-05-07 13:50 | 52.49134 | 6.00575 | 13351 ft | 362 kts | 274° |
| 2026-05-07 13:50 | 52.49332 | 5.96469 | 12788 ft | 359 kts | 274° |
| 2026-05-07 13:51 | 52.49524 | 5.92405 | 12210 ft | 356 kts | 274° |
| 2026-05-07 13:51 | 52.49711 | 5.88374 | 11624 ft | 353 kts | 274° |
| 2026-05-07 13:51 | 52.49895 | 5.84374 | 11044 ft | 350 kts | 274° |
| 2026-05-07 13:51 | 52.50076 | 5.80457 | 10856 ft | 336 kts | 274° |
| 2026-05-07 13:52 | 52.50246 | 5.76709 | 10737 ft | 322 kts | 274° |
| 2026-05-07 13:52 | 52.50404 | 5.73121 | 10611 ft | 309 kts | 274° |
| 2026-05-07 13:52 | 52.50555 | 5.69680 | 10486 ft | 297 kts | 274° |
| 2026-05-07 13:52 | 52.50662 | 5.67471 | 10404 ft | 289 kts | 274° |
| 2026-05-07 13:53 | 52.50827 | 5.64224 | 10177 ft | 283 kts | 274° |
| 2026-05-07 13:53 | 52.50989 | 5.61019 | 9837 ft | 281 kts | 274° |
| 2026-05-07 13:53 | 52.51154 | 5.57829 | 9464 ft | 279 kts | 274° |
| 2026-05-07 13:53 | 52.51307 | 5.54669 | 9042 ft | 278 kts | 270° |
| 2026-05-07 13:54 | 52.50995 | 5.51573 | 8630 ft | 275 kts | 248° |
| 2026-05-07 13:54 | 52.50044 | 5.48862 | 8186 ft | 275 kts | 236° |
| 2026-05-07 13:54 | 52.48975 | 5.46264 | 7787 ft | 273 kts | 235° |
| 2026-05-07 13:54 | 52.47906 | 5.43694 | 7395 ft | 272 kts | 235° |
| 2026-05-07 13:55 | 52.46840 | 5.41139 | 7104 ft | 269 kts | 235° |
| 2026-05-07 13:55 | 52.45782 | 5.38602 | 7078 ft | 270 kts | 235° |
| 2026-05-07 13:55 | 52.44714 | 5.36051 | 7083 ft | 271 kts | 234° |
| 2026-05-07 13:55 | 52.43648 | 5.33507 | 7082 ft | 272 kts | 235° |
| 2026-05-07 13:56 | 52.42575 | 5.30943 | 7073 ft | 271 kts | 235° |
| 2026-05-07 13:56 | 52.41517 | 5.28404 | 6735 ft | 269 kts | 235° |
| 2026-05-07 13:56 | 52.40465 | 5.25879 | 6304 ft | 268 kts | 235° |
| 2026-05-07 13:56 | 52.39415 | 5.23362 | 5831 ft | 268 kts | 235° |
| 2026-05-07 13:57 | 52.38360 | 5.20845 | 5404 ft | 267 kts | 235° |
| 2026-05-07 13:57 | 52.37308 | 5.18345 | 4977 ft | 266 kts | 235° |
| 2026-05-07 13:57 | 52.36260 | 5.15854 | 4552 ft | 265 kts | 235° |
| 2026-05-07 13:57 | 52.35217 | 5.13374 | 4402 ft | 266 kts | 235° |
| 2026-05-07 13:58 | 52.34186 | 5.10925 | 4262 ft | 255 kts | 236° |
| 2026-05-07 13:58 | 52.33239 | 5.08555 | 4130 ft | 243 kts | 238° |
| 2026-05-07 13:58 | 52.32352 | 5.06275 | 4008 ft | 235 kts | 238° |
| 2026-05-07 13:58 | 52.31475 | 5.04025 | 3963 ft | 235 kts | 238° |
| 2026-05-07 13:59 | 52.30606 | 5.01796 | 3910 ft | 234 kts | 238° |
| 2026-05-07 13:59 | 52.29732 | 4.99552 | 3816 ft | 234 kts | 238° |
| 2026-05-07 13:59 | 52.28857 | 4.97317 | 3732 ft | 235 kts | 238° |
| 2026-05-07 13:59 | 52.27976 | 4.95070 | 3657 ft | 234 kts | 238° |
| 2026-05-07 14:00 | 52.27089 | 4.92826 | 3577 ft | 236 kts | 238° |
| 2026-05-07 14:00 | 52.26204 | 4.90576 | 3499 ft | 235 kts | 238° |
| 2026-05-07 14:00 | 52.25323 | 4.88322 | 3434 ft | 237 kts | 238° |
| 2026-05-07 14:00 | 52.24444 | 4.86063 | 3347 ft | 235 kts | 238° |
| 2026-05-07 14:01 | 52.23567 | 4.83811 | 3276 ft | 235 kts | 238° |
| 2026-05-07 14:01 | 52.22684 | 4.81554 | 3200 ft | 237 kts | 238° |
| 2026-05-07 14:01 | 52.21801 | 4.79292 | 3123 ft | 237 kts | 238° |
| 2026-05-07 14:01 | 52.20918 | 4.77022 | 3029 ft | 237 kts | 238° |
| 2026-05-07 14:02 | 52.20047 | 4.74780 | 2960 ft | 228 kts | 238° |
| 2026-05-07 14:02 | 52.19219 | 4.72655 | 2873 ft | 217 kts | 238° |
| 2026-05-07 14:02 | 52.18434 | 4.70636 | 2810 ft | 205 kts | 238° |
| 2026-05-07 14:02 | 52.17700 | 4.68726 | 2753 ft | 195 kts | 237° |
| 2026-05-07 14:03 | 52.16993 | 4.66880 | 2672 ft | 194 kts | 238° |
| 2026-05-07 14:03 | 52.16273 | 4.64996 | 2583 ft | 194 kts | 237° |
| 2026-05-07 14:03 | 52.15564 | 4.63144 | 2527 ft | 191 kts | 238° |
| 2026-05-07 14:03 | 52.14868 | 4.61327 | 2734 ft | 193 kts | 238° |
| 2026-05-07 14:04 | 52.14146 | 4.59442 | 2934 ft | 194 kts | 237° |
| 2026-05-07 14:04 | 52.13455 | 4.57593 | 2992 ft | 195 kts | 243° |
| 2026-05-07 14:04 | 52.13241 | 4.55466 | 2995 ft | 192 kts | 282° |
| 2026-05-07 14:04 | 52.13893 | 4.53650 | 3001 ft | 184 kts | 321° |
| 2026-05-07 14:05 | 52.14900 | 4.52525 | 2945 ft | 170 kts | 330° |
| 2026-05-07 14:05 | 52.15908 | 4.51562 | 2723 ft | 167 kts | 332° |
| 2026-05-07 14:05 | 52.16909 | 4.50631 | 2477 ft | 165 kts | 332° |
| 2026-05-07 14:05 | 52.17927 | 4.49774 | 2220 ft | 162 kts | 347° |
| 2026-05-07 14:06 | 52.18998 | 4.49912 | 2051 ft | 153 kts | 23° |
| 2026-05-07 14:06 | 52.19870 | 4.50770 | 2003 ft | 141 kts | 41° |
| 2026-05-07 14:06 | 52.20502 | 4.51964 | 2028 ft | 137 kts | 57° |
| 2026-05-07 14:06 | 52.21003 | 4.53257 | 2023 ft | 134 kts | 57° |
| 2026-05-07 14:07 | 52.21500 | 4.54539 | 2007 ft | 132 kts | 57° |
| 2026-05-07 14:07 | 52.21997 | 4.55819 | 2005 ft | 133 kts | 58° |
| 2026-05-07 14:07 | 52.22493 | 4.57098 | 2010 ft | 134 kts | 58° |
| 2026-05-07 14:07 | 52.22989 | 4.58381 | 1996 ft | 132 kts | 57° |
| 2026-05-07 14:08 | 52.23481 | 4.59652 | 1938 ft | 134 kts | 57° |
| 2026-05-07 14:08 | 52.23975 | 4.60929 | 1810 ft | 133 kts | 57° |
| 2026-05-07 14:08 | 52.24461 | 4.62221 | 1643 ft | 133 kts | 63° |
| 2026-05-07 14:08 | 52.24462 | 4.63704 | 1453 ft | 140 kts | 117° |
| 2026-05-07 14:09 | 52.23860 | 4.65006 | 1581 ft | 149 kts | 129° |
| 2026-05-07 14:09 | 52.23188 | 4.66114 | 2368 ft | 129 kts | 131° |
| 2026-05-07 14:09 | 52.22594 | 4.67081 | 2512 ft | 118 kts | 131° |
| 2026-05-07 14:09 | 52.21858 | 4.68234 | 2338 ft | 165 kts | 137° |
| 2026-05-07 14:10 | 52.20760 | 4.68853 | 2915 ft | 175 kts | 175° |
| 2026-05-07 14:10 | 52.19598 | 4.68607 | 2857 ft | 161 kts | 205° |
| 2026-05-07 14:10 | 52.18747 | 4.67275 | 2734 ft | 196 kts | 237° |
| 2026-05-07 14:10 | 52.18132 | 4.65100 | 2835 ft | 229 kts | 248° |
| 2026-05-07 14:11 | 52.17357 | 4.62378 | 2247 ft | 295 kts | 244° |
| 2026-05-07 14:11 | 52.16408 | 4.59202 | 2356 ft | 321 kts | 244° |
| 2026-05-07 14:11 | 52.15465 | 4.56054 | 2249 ft | 300 kts | 244° |
| 2026-05-07 14:11 | 52.14571 | 4.53102 | 2142 ft | 282 kts | 245° |
| 2026-05-07 14:12 | 52.14108 | 4.50162 | 2109 ft | 261 kts | 274° |
| 2026-05-07 14:12 | 52.14670 | 4.47516 | 1991 ft | 239 kts | 309° |
| 2026-05-07 14:12 | 52.15888 | 4.45951 | 2000 ft | 214 kts | 342° |
| 2026-05-07 14:12 | 52.17274 | 4.45834 | 2003 ft | 193 kts | 19° |
| 2026-05-07 14:13 | 52.18379 | 4.46835 | 2029 ft | 174 kts | 42° |
| 2026-05-07 14:13 | 52.19087 | 4.48324 | 2008 ft | 162 kts | 57° |
| 2026-05-07 14:13 | 52.19683 | 4.49859 | 1998 ft | 159 kts | 56° |
| 2026-05-07 14:13 | 52.20273 | 4.51377 | 1998 ft | 158 kts | 57° |
| 2026-05-07 14:14 | 52.20861 | 4.52891 | 2009 ft | 159 kts | 58° |
| 2026-05-07 14:14 | 52.21450 | 4.54408 | 1991 ft | 156 kts | 57° |
| 2026-05-07 14:14 | 52.22030 | 4.55903 | 2019 ft | 155 kts | 57° |
| 2026-05-07 14:14 | 52.22607 | 4.57394 | 2013 ft | 157 kts | 57° |
| 2026-05-07 14:15 | 52.23189 | 4.58897 | 1997 ft | 158 kts | 58° |
| 2026-05-07 14:15 | 52.23773 | 4.60406 | 1870 ft | 156 kts | 57° |
| 2026-05-07 14:15 | 52.24351 | 4.61901 | 1694 ft | 156 kts | 56° |
| 2026-05-07 14:15 | 52.24915 | 4.63362 | 1487 ft | 146 kts | 57° |
| 2026-05-07 14:16 | 52.25434 | 4.64707 | 1291 ft | 134 kts | 55° |
| 2026-05-07 14:16 | 52.25929 | 4.65987 | 1116 ft | 131 kts | 54° |
| 2026-05-07 14:16 | 52.26414 | 4.67243 | 943 ft | 132 kts | 56° |
| 2026-05-07 14:16 | 52.26904 | 4.68519 | 786 ft | 130 kts | 56° |
| 2026-05-07 14:17 | 52.27377 | 4.69754 | 637 ft | 131 kts | 55° |
| 2026-05-07 14:17 | 52.27864 | 4.71016 | 434 ft | 132 kts | 56° |
| 2026-05-07 14:17 | 52.28358 | 4.72296 | 254 ft | 134 kts | 53° |
| 2026-05-07 14:17 | 52.28857 | 4.73582 | 67 ft | 135 kts | 55° |
| 2026-05-07 14:18 | 52.29338 | 4.74832 | -1 ft | 118 kts | 58° |
| 2026-05-07 14:18 | 52.29614 | 4.75555 | -1 ft | 35 kts | 57° |
| 2026-05-07 14:18 | 52.29774 | 4.75796 | -2 ft | 18 kts | 29° |
| 2026-05-07 14:18 | 52.29893 | 4.75900 | -1 ft | 20 kts | 27° |
| 2026-05-07 14:19 | 52.30010 | 4.76036 | -1 ft | 22 kts | 57° |
| 2026-05-07 14:19 | 52.30085 | 4.76231 | -1 ft | 18 kts | 58° |
| 2026-05-07 14:19 | 52.30154 | 4.76413 | -1 ft | 20 kts | 58° |
| 2026-05-07 14:19 | 52.30232 | 4.76616 | -1 ft | 22 kts | 58° |
| 2026-05-07 14:20 | 52.30290 | 4.76737 | -1 ft | 9 kts | 19° |
| 2026-05-07 14:20 | 52.30343 | 4.76646 | -1 ft | 17 kts | 272° |
| 2026-05-07 14:20 | 52.30368 | 4.76511 | -1 ft | 7 kts | 279° |
| 2026-05-07 14:20 | 52.30350 | 4.76450 | -1 ft | 4 kts | 237° |
| 2026-05-07 14:21 | 52.30344 | 4.76432 | -1 ft | 0 kts | 237° |